Weather History for Novato, CA

Change the Weather History Date:

Sunday, October 27, 2013

  Actual Average (KAPC) Record (KAPC)
Temperature  
Mean Temperature 50 °F 56 °F  
Max Temperature 60 °F 71 °F 90 °F (2003)
Min Temperature 39 °F 41 °F 32 °F (2011)
Degree Days  
Heating Degree Days 16    
Month to date heating degree days  
Since 1 July heating degree days  
Cooling Degree Days 0    
Month to date cooling degree days  
Year to date cooling degree days  
Moisture  
Dew Point 46 °F    
Average Humidity 86    
Maximum Humidity 100    
Minimum Humidity 59    
Precipitation  
Precipitation 0.00 in - 2.15 in (1941)
Month to date precipitation  
Year to date precipitation  
Since 1 July precipitation  
Sea Level Pressure  
Sea Level Pressure 29.87 in    
Wind  
Wind Speed 8 mph (West)    
Max Wind Speed 30 mph    
Max Gust Speed 41 mph    
Visibility 9 miles    
Events Fog    
T = Trace of Precipitation, MM = Missing Value Source: NWS Daily Summary

Daily Weather History Graph

Daily Weather History Graph

Search for Another Location

Airport:

Trip Planner

Search our weather history database for the weather conditions in past years. The results will help you decide how hot, cold, wet, or windy it might be!

Date:

Astronomy

Oct. 27, 2013 Rise Set
Actual Time 7:31 AM PDT 6:16 PM PDT
Civil Twilight 7:04 AM PDT 6:43 PM PDT
Nautical Twilight 6:33 AM PDT 7:14 PM PDT
Astronomical Twilight 6:02 AM PDT 7:44 PM PDT
Moon 12:39 AM PDT (10/27) 2:22 PM PDT (10/27)
Length of Visible Light 11h 39m
Length of Day
10h 44m
Last Quarter, 42% of the Moon is Illuminated
Oct 27
Last Quarter
Nov 3
New
Nov 9
First Quarter
Nov 17
Full
Nov 25
Last Quarter

Hourly Weather History & Observations

Time (PDT) Temp. Windchill Dew Point Humidity Pressure Visibility Wind Dir Wind Speed Gust Speed Precip Events Conditions
12:15 AM 42.8 °F 40.1 °F 42.8 °F 100% 30.04 in 10.0 mi North 4.6 mph - N/A   Clear
12:35 AM 42.8 °F 40.1 °F 42.8 °F 100% 30.04 in 9.0 mi North 4.6 mph - N/A   Clear
12:55 AM 44.6 °F - 44.6 °F 100% 30.04 in 5.0 mi Calm Calm - N/A   Clear
1:15 AM 44.6 °F - 44.6 °F 100% 30.04 in 10.0 mi Calm Calm - N/A   Partly Cloudy
1:35 AM 44.6 °F - 44.6 °F 100% 30.04 in 10.0 mi Calm Calm - N/A   Clear
1:55 AM 44.6 °F 42.2 °F 44.6 °F 100% 30.03 in 10.0 mi NNW 4.6 mph - N/A   Clear
2:15 AM 41.0 °F 38.0 °F 41.0 °F 100% 30.03 in 8.0 mi NNW 4.6 mph - N/A   Clear
2:35 AM 44.6 °F 41.4 °F 44.6 °F 100% 30.03 in 0.5 mi North 5.8 mph - N/A Fog Fog
2:55 AM 44.6 °F 43.1 °F 44.6 °F 100% 30.03 in 10.0 mi NW 3.5 mph - N/A   Overcast
3:15 AM 44.6 °F 40.2 °F 44.6 °F 100% 30.02 in 8.0 mi NNW 8.1 mph - N/A   Overcast
3:35 AM 44.6 °F 41.4 °F 44.6 °F 100% 30.02 in 3.0 mi NNW 5.8 mph - N/A   Mist
3:55 AM 42.8 °F - 42.8 °F 100% 30.01 in 10.0 mi Calm Calm - N/A   Unknown
4:15 AM 42.8 °F - 42.8 °F 100% 30.01 in 0.2 mi Calm Calm - N/A Fog Fog
4:35 AM 41.0 °F 39.0 °F 41.0 °F 100% 30.00 in 0.5 mi WSW 3.5 mph - N/A Fog Fog
4:55 AM 39.2 °F - 39.2 °F 100% 30.00 in 0.2 mi Calm Calm - N/A Fog Fog
5:15 AM 41.0 °F - 41.0 °F 100% 29.99 in 10.0 mi Calm Calm - N/A   Unknown
5:35 AM 42.8 °F - 42.8 °F 100% 30.00 in 10.0 mi Calm Calm - N/A   Unknown
5:55 AM 42.8 °F 41.1 °F 42.8 °F 100% 30.00 in 10.0 mi West 3.5 mph - N/A   Unknown
6:15 AM 42.8 °F - 42.8 °F 100% 30.00 in 3.0 mi Calm Calm - N/A   Mist
6:35 AM 42.8 °F - 42.8 °F 100% 29.99 in 10.0 mi Calm Calm - N/A   Unknown
6:55 AM 41.0 °F - 41.0 °F 100% 29.98 in 4.0 mi Calm Calm - N/A   Mist
7:15 AM 41.0 °F - 41.0 °F 100% 29.98 in 10.0 mi Calm Calm - N/A   Unknown
7:35 AM 42.8 °F 41.1 °F 42.8 °F 100% 29.98 in 10.0 mi SSW 3.5 mph - N/A   Unknown
7:55 AM 44.6 °F - 44.6 °F 100% 29.98 in 10.0 mi Calm Calm - N/A   Unknown
8:15 AM 46.4 °F 44.3 °F 46.4 °F 100% 29.98 in 10.0 mi SSW 4.6 mph - N/A   Unknown
8:35 AM 48.2 °F - 48.2 °F 100% 29.98 in 10.0 mi SSE 3.5 mph - N/A   Unknown
8:55 AM 48.2 °F - 48.2 °F 100% 29.98 in 10.0 mi Calm Calm - N/A   Unknown
9:15 AM 50.0 °F - 50.0 °F 100% 29.98 in 10.0 mi Calm Calm - N/A   Unknown
9:35 AM 50.0 °F - 50.0 °F 100% 29.98 in 10.0 mi Calm Calm - N/A   Unknown
9:55 AM 53.6 °F - 51.8 °F 94% 29.96 in 10.0 mi SW 12.7 mph - N/A   Unknown
10:15 AM 53.6 °F - 51.8 °F 94% 29.96 in 10.0 mi SW 8.1 mph - N/A   Unknown
10:35 AM 55.4 °F - 50.0 °F 82% 29.95 in 10.0 mi NW 4.6 mph - N/A   Overcast
10:55 AM 55.4 °F - 50.0 °F 82% 29.94 in 10.0 mi ENE 3.5 mph - N/A   Mostly Cloudy
11:15 AM 57.2 °F - 50.0 °F 77% 29.94 in 10.0 mi East 4.6 mph - N/A   Mostly Cloudy
11:35 AM 59.0 °F - 50.0 °F 72% 29.92 in 10.0 mi SSW 12.7 mph - N/A   Partly Cloudy
11:55 AM 60.8 °F - 50.0 °F 68% 29.92 in 10.0 mi SW 10.4 mph 19.6 mph N/A   Clear
12:15 PM 59.0 °F - 48.2 °F 67% 29.91 in 10.0 mi SW 15.0 mph - N/A   Clear
12:35 PM 59.0 °F - 46.4 °F 63% 29.90 in 10.0 mi WSW 18.4 mph 25.3 mph N/A   Clear
12:55 PM 59.0 °F - 48.2 °F 67% 29.89 in 10.0 mi SW 15.0 mph 24.2 mph N/A   Clear
1:15 PM 59.0 °F - 48.2 °F 67% 29.88 in 10.0 mi SW 17.3 mph 23.0 mph N/A   Clear
1:35 PM 59.0 °F - 48.2 °F 67% 29.87 in 10.0 mi SW 12.7 mph 17.3 mph N/A   Clear
1:55 PM 60.8 °F - 46.4 °F 59% 29.86 in 10.0 mi WSW 16.1 mph 21.9 mph N/A   Clear
2:15 PM 59.0 °F - 46.4 °F 63% 29.85 in 10.0 mi West 13.8 mph 21.9 mph N/A   Clear
2:35 PM 59.0 °F - 46.4 °F 63% 29.84 in 10.0 mi West 17.3 mph 29.9 mph N/A   Clear
2:55 PM 59.0 °F - 46.4 °F 63% 29.83 in 10.0 mi West 11.5 mph 27.6 mph N/A   Clear
3:15 PM 59.0 °F - 48.2 °F 67% 29.82 in 10.0 mi West 12.7 mph 24.2 mph N/A   Clear
3:35 PM 57.2 °F - 48.2 °F 72% 29.79 in 10.0 mi WSW 27.6 mph 35.7 mph N/A   Clear
3:55 PM 55.4 °F - 48.2 °F 77% 29.79 in 10.0 mi WSW 21.9 mph 36.8 mph N/A   Clear
4:15 PM 55.4 °F - 46.4 °F 72% 29.79 in 10.0 mi West 11.5 mph 28.8 mph N/A   Clear
4:35 PM 55.4 °F - 48.2 °F 77% 29.77 in 10.0 mi West 23.0 mph 29.9 mph N/A   Clear
4:55 PM 53.6 °F - 46.4 °F 77% 29.76 in 10.0 mi West 19.6 mph 36.8 mph N/A   Clear
5:15 PM 53.6 °F - 48.2 °F 82% 29.74 in 10.0 mi West 24.2 mph 34.5 mph N/A   Clear
5:35 PM 53.6 °F - 48.2 °F 82% 29.74 in 10.0 mi West 16.1 mph 34.5 mph N/A   Clear
5:55 PM 53.6 °F - 48.2 °F 82% 29.73 in 10.0 mi West 21.9 mph 31.1 mph N/A   Clear
6:15 PM 53.6 °F - 48.2 °F 82% 29.71 in 10.0 mi West 19.6 mph 29.9 mph N/A   Clear
6:35 PM 53.6 °F - 48.2 °F 82% 29.69 in 10.0 mi West 24.2 mph 33.4 mph N/A   Clear
6:55 PM 53.6 °F - 48.2 °F 82% 29.67 in 10.0 mi West 28.8 mph 39.1 mph N/A   Clear
7:15 PM 53.6 °F - 50.0 °F 88% 29.68 in 10.0 mi West 29.9 mph 41.4 mph N/A   Clear
7:35 PM 53.6 °F - 50.0 °F 88% 29.68 in 10.0 mi West 23.0 mph 34.5 mph N/A   Clear
7:55 PM 53.6 °F - 50.0 °F 88% 29.68 in 10.0 mi West 20.7 mph 33.4 mph N/A   Clear
8:15 PM 53.6 °F - 50.0 °F 88% 29.66 in 10.0 mi West 26.5 mph 34.5 mph N/A   Clear
8:35 PM 53.6 °F - 50.0 °F 88% 29.65 in - West 28.8 mph 38.0 mph N/A   Unknown
8:55 PM 53.6 °F - 50.0 °F 88% 29.66 in - WSW 28.8 mph 35.7 mph N/A   Unknown
9:15 PM 53.6 °F - 48.2 °F 82% 29.66 in - West 20.7 mph 32.2 mph N/A   Clear
9:35 PM 55.4 °F - 46.4 °F 72% 29.64 in - West 20.7 mph 35.7 mph N/A   Clear
9:55 PM 53.6 °F - 46.4 °F 77% 29.65 in 10.0 mi West 20.7 mph 28.8 mph N/A   Clear
10:15 PM 53.6 °F - 46.4 °F 77% 29.66 in - West 17.3 mph 29.9 mph N/A   Clear
10:35 PM 53.6 °F - 46.4 °F 77% 29.65 in - West 23.0 mph 28.8 mph N/A   Clear
10:55 PM 53.6 °F - 46.4 °F 77% 29.66 in - West 17.3 mph 27.6 mph N/A   Clear
11:15 PM 53.6 °F - 44.6 °F 72% 29.67 in 10.0 mi West 16.1 mph 25.3 mph N/A   Clear
11:35 PM 55.4 °F - 44.6 °F 67% 29.67 in 10.0 mi West 19.6 mph 24.2 mph N/A   Clear
11:55 PM 55.4 °F - 42.8 °F 63% 29.67 in 10.0 mi WNW 15.0 mph 24.2 mph N/A   Clear